Time;durP1;ratioP1;P1;durP2;ratioP2;P2;SDS_P1;SDS_P2;PMS_P1;PMS_P2;Temp;Humidity;BMP_temperature;BMP_pressure;BME280_temperature;BME280_humidity;BME280_pressure;Samples;Min_cycle;Max_cycle;Signal;HPM_P1;HPM_P2
2022/07/30 00:00:10;;;;;;;4.50;4.10;;;18.80;99.90;;;;;;5001920;28;20215;-88
2022/07/30 00:02:36;;;;;;;4.82;3.92;;;18.70;99.90;;;;;;4976413;28;20200;-87
2022/07/30 00:05:03;;;;;;;4.90;4.40;;;18.60;99.90;;;;;;4975711;28;20191;-88
2022/07/30 00:07:29;;;;;;;5.15;4.47;;;18.60;99.90;;;;;;4975789;28;20210;-88
2022/07/30 00:09:57;;;;;;;4.65;4.25;;;18.60;99.90;;;;;;4975539;28;20175;-88
2022/07/30 00:12:23;;;;;;;5.93;4.20;;;18.60;99.90;;;;;;4976263;28;20262;-88
2022/07/30 00:14:49;;;;;;;4.45;4.05;;;18.70;99.90;;;;;;4975545;28;20267;-87
2022/07/30 00:17:15;;;;;;;4.97;4.15;;;18.60;99.90;;;;;;4975729;28;20176;-88
2022/07/30 00:19:41;;;;;;;5.43;4.45;;;18.60;99.90;;;;;;4975851;28;20192;-88
2022/07/30 00:22:08;;;;;;;6.72;4.30;;;18.70;99.90;;;;;;4991384;28;20227;-88
2022/07/30 00:24:34;;;;;;;4.60;4.18;;;18.80;99.90;;;;;;4976043;28;20183;-88
2022/07/30 00:27:00;;;;;;;4.90;3.70;;;18.70;99.90;;;;;;4975639;28;20175;-88
2022/07/30 00:29:26;;;;;;;4.60;4.10;;;18.70;99.90;;;;;;4991466;28;20184;-88
2022/07/30 00:31:54;;;;;;;4.43;4.03;;;18.80;99.90;;;;;;4991404;28;20192;-87
2022/07/30 00:34:20;;;;;;;4.45;3.70;;;18.80;99.90;;;;;;4975629;28;20191;-88
2022/07/30 00:36:45;;;;;;;4.55;3.80;;;18.80;99.90;;;;;;4975725;28;20199;-87
2022/07/30 00:39:11;;;;;;;3.97;3.67;;;18.80;99.90;;;;;;4975265;28;20230;-88
2022/07/30 00:41:57;;;;;;;4.07;3.78;;;18.80;99.90;;;;;;4975127;28;20305;-87
2022/07/30 00:44:24;;;;;;;3.97;3.67;;;18.80;99.90;;;;;;4975552;28;20532;-88
2022/07/30 00:46:51;;;;;;;4.60;3.72;;;18.80;99.90;;;;;;4975662;28;20210;-87
2022/07/30 00:49:17;;;;;;;4.75;4.30;;;18.80;99.90;;;;;;4975416;28;20188;-88
2022/07/30 00:51:42;;;;;;;4.38;3.97;;;18.80;99.90;;;;;;4975197;28;20279;-88
2022/07/30 00:54:08;;;;;;;4.20;3.80;;;18.80;99.90;;;;;;4991375;28;20272;-88
2022/07/30 00:56:34;;;;;;;4.07;3.70;;;18.80;99.90;;;;;;4991424;28;20184;-88
2022/07/30 00:59:00;;;;;;;6.07;3.80;;;18.80;99.90;;;;;;4975571;28;20175;-88
2022/07/30 01:01:26;;;;;;;6.43;4.00;;;18.80;99.90;;;;;;4974969;28;20298;-87
2022/07/30 01:03:52;;;;;;;4.72;3.80;;;18.80;99.90;;;;;;4975566;28;20220;-88
2022/07/30 01:06:18;;;;;;;5.63;3.75;;;18.80;99.90;;;;;;4991573;28;20159;-88
2022/07/30 01:08:44;;;;;;;4.07;3.67;;;18.70;99.90;;;;;;4991575;28;20180;-88
2022/07/30 01:11:10;;;;;;;8.15;3.97;;;18.70;99.90;;;;;;4991200;28;20203;-88
2022/07/30 01:13:42;;;;;;;4.82;3.70;;;18.60;99.90;;;;;;4991584;28;20249;-88
2022/07/30 01:16:09;;;;;;;4.32;3.92;;;18.50;99.90;;;;;;4991407;28;20188;-87
2022/07/30 01:21:31;;;;;;;4.50;4.10;;;18.50;99.90;;;;;;4990902;28;20231;-88
2022/07/30 01:24:08;;;;;;;4.22;3.72;;;18.60;99.90;;;;;;4991020;28;20172;-88
2022/07/30 01:26:34;;;;;;;4.63;3.70;;;18.50;99.90;;;;;;4975015;28;20168;-88
2022/07/30 01:29:01;;;;;;;4.13;3.75;;;18.40;99.90;;;;;;4991526;28;20236;-87
2022/07/30 01:31:28;;;;;;;4.40;4.00;;;18.40;99.90;;;;;;4973731;28;20218;-88
2022/07/30 01:33:57;;;;;;;4.82;3.90;;;18.40;99.90;;;;;;4973569;28;20184;-88
2022/07/30 01:36:26;;;;;;;6.30;4.07;;;18.40;99.90;;;;;;4974971;28;20183;-87
2022/07/30 01:39:01;;;;;;;4.38;3.90;;;18.30;99.90;;;;;;4990099;28;20191;-87
2022/07/30 01:41:29;;;;;;;4.20;3.80;;;18.30;99.90;;;;;;4956804;28;20240;-87
2022/07/30 01:43:56;;;;;;;4.18;3.88;;;18.30;99.90;;;;;;4958853;28;20180;-87
2022/07/30 01:46:23;;;;;;;4.63;3.65;;;18.20;99.90;;;;;;4978244;28;20168;-87
2022/07/30 01:48:50;;;;;;;4.75;4.13;;;18.20;99.90;;;;;;4977910;28;20172;-87
2022/07/30 01:51:18;;;;;;;5.22;3.92;;;18.10;99.90;;;;;;4977590;28;20215;-87
2022/07/30 01:53:50;;;;;;;6.85;4.28;;;18.10;99.90;;;;;;4994496;28;20188;-87
2022/07/30 01:56:22;;;;;;;5.35;3.90;;;18.00;99.90;;;;;;4994611;28;20215;-86
2022/07/30 01:58:49;;;;;;;5.07;3.70;;;18.00;99.90;;;;;;4994143;28;20203;-87
2022/07/30 02:01:23;;;;;;;5.43;4.45;;;17.90;99.90;;;;;;4994191;28;20295;-86
2022/07/30 02:03:52;;;;;;;4.95;4.45;;;17.90;99.90;;;;;;4977816;28;20264;-87
2022/07/30 02:06:31;;;;;;;5.07;4.22;;;17.80;99.90;;;;;;4977558;28;20223;-87
2022/07/30 02:09:02;;;;;;;5.38;4.45;;;17.80;99.90;;;;;;4978223;28;20244;-86
2022/07/30 02:14:28;;;;;;;5.97;4.93;;;17.90;99.90;;;;;;4993489;28;20210;-87
2022/07/30 02:16:57;;;;;;;5.47;4.50;;;17.80;99.90;;;;;;4977617;28;20190;-87
2022/07/30 02:19:38;;;;;;;5.05;4.60;;;17.80;99.90;;;;;;4993471;28;20190;-86
2022/07/30 02:22:09;;;;;;;4.73;4.33;;;17.80;99.90;;;;;;4977105;28;20207;-87
2022/07/30 02:24:37;;;;;;;5.07;4.60;;;17.70;99.90;;;;;;4993399;28;20230;-86
2022/07/30 02:27:14;;;;;;;5.40;4.80;;;17.70;99.90;;;;;;4993263;28;20212;-86
2022/07/30 02:29:43;;;;;;;7.63;4.80;;;17.60;99.90;;;;;;4993374;28;20202;-86
2022/07/30 02:32:13;;;;;;;5.97;4.90;;;17.50;99.90;;;;;;4993141;28;20182;-87
2022/07/30 02:34:42;;;;;;;6.57;4.63;;;17.50;99.90;;;;;;4976971;28;20179;-87
2022/07/30 02:37:11;;;;;;;5.57;4.83;;;17.40;99.90;;;;;;4992892;28;20192;-87
2022/07/30 02:39:40;;;;;;;5.87;5.30;;;17.20;99.90;;;;;;4995022;28;20191;-87
2022/07/30 02:42:11;;;;;;;5.53;4.80;;;17.10;99.90;;;;;;4996545;28;20208;-86
2022/07/30 02:44:44;;;;;;;7.27;5.53;;;17.00;99.90;;;;;;4992684;28;20646;-86
2022/07/30 02:47:15;;;;;;;6.03;5.43;;;16.80;99.90;;;;;;4977111;28;20175;-87
2022/07/30 02:50:02;;;;;;;7.27;5.20;;;16.70;99.90;;;;;;4992247;28;20279;-86
2022/07/30 02:52:31;;;;;;;6.03;5.43;;;16.60;99.90;;;;;;4992968;28;20184;-86
2022/07/30 02:54:59;;;;;;;6.23;5.33;;;16.60;99.90;;;;;;4993191;28;20207;-86
2022/07/30 02:57:28;;;;;;;6.03;5.53;;;16.70;99.90;;;;;;4992968;28;20411;-87
2022/07/30 02:59:55;;;;;;;6.43;5.83;;;16.80;99.90;;;;;;4976384;28;20183;-86
2022/07/30 03:02:23;;;;;;;6.87;6.17;;;16.90;99.90;;;;;;4976546;28;20207;-86
2022/07/30 03:04:51;;;;;;;6.40;5.80;;;17.00;99.90;;;;;;4993118;28;20223;-87
2022/07/30 03:07:18;;;;;;;6.77;6.03;;;17.00;99.90;;;;;;4976553;28;20180;-87
2022/07/30 03:09:46;;;;;;;5.57;5.17;;;17.10;99.90;;;;;;4976664;28;20203;-87
2022/07/30 03:12:13;;;;;;;6.67;6.00;;;17.10;99.90;;;;;;4976718;28;20186;-86
2022/07/30 03:14:39;;;;;;;6.37;5.70;;;17.10;99.90;;;;;;4976422;28;20295;-87
2022/07/30 03:17:07;;;;;;;6.90;5.90;;;17.10;99.90;;;;;;4976195;28;20264;-86
2022/07/30 03:19:38;;;;;;;6.90;5.93;;;17.00;99.90;;;;;;4976116;28;20186;-87
2022/07/30 03:22:07;;;;;;;6.43;5.80;;;16.90;99.90;;;;;;4975842;28;20223;-86
2022/07/30 03:24:34;;;;;;;5.80;5.30;;;16.90;99.90;;;;;;4976178;28;20235;-86
2022/07/30 03:27:02;;;;;;;5.83;5.30;;;16.80;99.90;;;;;;4975538;28;20180;-86
2022/07/30 03:29:29;;;;;;;6.93;6.13;;;16.80;99.90;;;;;;4975522;28;20176;-86
2022/07/30 03:31:56;;;;;;;7.23;5.80;;;16.80;99.90;;;;;;4975473;28;20211;-87
2022/07/30 03:34:24;;;;;;;5.83;5.23;;;16.70;99.90;;;;;;4975303;28;20180;-86
2022/07/30 03:36:50;;;;;;;6.40;5.80;;;16.70;99.90;;;;;;4975757;28;20187;-87
2022/07/30 03:39:17;;;;;;;11.73;6.40;;;16.60;99.90;;;;;;4964379;28;20197;-87
2022/07/30 03:41:45;;;;;;;6.73;6.03;;;16.60;99.90;;;;;;4975637;28;20279;-86
2022/07/30 03:44:14;;;;;;;6.33;5.73;;;16.50;99.90;;;;;;4976090;28;20727;-86
2022/07/30 03:46:41;;;;;;;6.33;5.50;;;16.60;99.90;;;;;;4991920;28;20171;-87
2022/07/30 03:49:09;;;;;;;8.47;6.13;;;16.60;99.90;;;;;;4975759;28;20183;-87
2022/07/30 03:51:36;;;;;;;7.00;5.70;;;16.50;99.90;;;;;;4986243;28;20196;-86
2022/07/30 03:54:08;;;;;;;6.93;6.33;;;16.50;99.90;;;;;;4994236;28;20187;-86
2022/07/30 03:56:34;;;;;;;7.73;6.17;;;16.50;99.90;;;;;;5008088;28;20176;-87
2022/07/30 03:59:28;;;;;;;6.47;5.87;;;16.40;99.90;;;;;;5009989;28;20565;-87
2022/07/30 04:02:04;;;;;;;6.73;6.10;;;16.40;99.90;;;;;;4976584;28;20275;-86
2022/07/30 04:04:53;;;;;;;6.27;5.77;;;16.40;99.90;;;;;;4989148;28;20231;-86
2022/07/30 04:07:19;;;;;;;7.63;6.30;;;16.50;99.90;;;;;;4991230;28;20180;-86
2022/07/30 04:09:45;;;;;;;8.33;6.30;;;16.40;99.90;;;;;;4996725;28;20173;-86
2022/07/30 04:12:31;;;;;;;6.73;5.80;;;16.40;99.90;;;;;;4993235;28;20182;-86
2022/07/30 04:14:58;;;;;;;6.33;5.70;;;16.40;99.90;;;;;;4985227;28;20314;-87
2022/07/30 04:17:54;;;;;;;6.20;5.33;;;16.30;99.90;;;;;;4975664;28;20187;-87
2022/07/30 04:20:30;;;;;;;6.73;5.83;;;16.30;99.90;;;;;;4980515;28;20234;-87
2022/07/30 04:22:57;;;;;;;8.77;6.07;;;16.30;99.90;;;;;;4988166;28;20201;-87
2022/07/30 04:25:25;;;;;;;5.97;5.37;;;16.20;99.90;;;;;;4975385;28;20267;-86
2022/07/30 04:27:51;;;;;;;7.30;5.97;;;16.20;99.90;;;;;;4991337;28;20172;-86
2022/07/30 04:30:17;;;;;;;6.33;5.77;;;16.20;99.90;;;;;;4991259;28;20196;-86
2022/07/30 04:32:43;;;;;;;6.13;5.57;;;16.20;99.90;;;;;;4991746;28;20187;-86
2022/07/30 04:35:43;;;;;;;7.20;6.00;;;16.10;99.90;;;;;;4975139;28;20214;-86
2022/07/30 04:38:13;;;;;;;7.10;6.47;;;16.10;99.90;;;;;;4994121;28;20187;-87
2022/07/30 04:40:41;;;;;;;5.93;5.37;;;16.10;99.90;;;;;;4975877;28;20258;-86
2022/07/30 04:43:07;;;;;;;7.90;5.90;;;16.10;99.90;;;;;;4998817;28;20242;-86
2022/07/30 04:45:35;;;;;;;6.67;5.97;;;16.10;99.90;;;;;;5006480;28;20270;-87
2022/07/30 04:48:04;;;;;;;6.53;5.97;;;16.00;99.90;;;;;;4976949;28;20177;-87
2022/07/30 04:50:52;;;;;;;9.43;6.47;;;16.00;99.90;;;;;;4992013;28;20214;-86
2022/07/30 04:53:21;;;;;;;6.13;5.30;;;16.00;99.90;;;;;;4975464;28;20180;-86
2022/07/30 04:55:52;;;;;;;6.60;5.70;;;16.10;99.90;;;;;;4991012;28;20634;-86
2022/07/30 04:58:22;;;;;;;7.00;6.30;;;16.10;99.90;;;;;;4991905;28;20659;-86
2022/07/30 05:00:53;;;;;;;7.07;6.07;;;16.20;99.90;;;;;;4972787;28;20260;-86
2022/07/30 05:03:24;;;;;;;8.63;5.90;;;16.30;99.90;;;;;;4975376;28;20203;-86
2022/07/30 05:05:54;;;;;;;9.70;6.33;;;16.40;99.90;;;;;;4976567;28;20183;-86
2022/07/30 05:08:21;;;;;;;6.97;5.90;;;16.40;99.90;;;;;;4980681;28;20187;-86
2022/07/30 05:10:48;;;;;;;9.07;6.47;;;16.50;99.90;;;;;;4975024;28;20199;-86
2022/07/30 05:13:15;;;;;;;7.03;6.27;;;16.60;99.90;;;;;;4987317;28;20267;-86
2022/07/30 05:15:45;;;;;;;7.00;5.77;;;16.70;99.90;;;;;;4994330;28;20215;-86
2022/07/30 05:18:13;;;;;;;5.80;5.20;;;16.80;99.90;;;;;;4986390;28;20187;-86
2022/07/30 05:20:42;;;;;;;6.30;5.70;;;16.90;99.90;;;;;;4981984;28;20198;-86
2022/07/30 05:23:26;;;;;;;6.20;5.60;;;17.00;99.90;;;;;;4983699;28;20243;-86
2022/07/30 05:26:01;;;;;;;5.80;5.20;;;17.10;99.90;;;;;;4979877;28;20222;-86
2022/07/30 05:28:36;;;;;;;8.10;5.20;;;17.20;99.90;;;;;;4994425;28;20178;-86
2022/07/30 05:31:06;;;;;;;5.27;4.77;;;17.30;99.90;;;;;;4993869;28;20192;-86
2022/07/30 05:33:32;;;;;;;5.80;5.30;;;17.30;99.90;;;;;;4985583;28;20184;-86
2022/07/30 05:35:59;;;;;;;6.30;4.90;;;17.40;99.90;;;;;;4991083;28;20189;-87
2022/07/30 05:38:30;;;;;;;7.53;5.00;;;17.50;99.90;;;;;;4994231;28;20174;-87
2022/07/30 05:41:15;;;;;;;6.17;5.10;;;17.70;99.90;;;;;;4983572;28;20217;-86
2022/07/30 05:44:16;;;;;;;6.97;5.10;;;17.80;99.90;;;;;;4964735;28;20195;-86
2022/07/30 05:46:42;;;;;;;5.43;5.03;;;17.80;99.90;;;;;;4986927;28;20187;-86
2022/07/30 05:49:08;;;;;;;7.67;5.20;;;17.90;99.90;;;;;;4978553;28;20184;-86
2022/07/30 05:51:34;;;;;;;5.93;4.87;;;18.00;99.90;;;;;;4977852;28;20245;-87
2022/07/30 05:53:59;;;;;;;6.73;4.77;;;18.10;99.90;;;;;;4994253;28;20204;-86
2022/07/30 05:57:04;;;;;;;4.97;4.47;;;18.20;99.90;;;;;;4994667;28;20234;-87
2022/07/30 05:59:37;;;;;;;5.27;4.77;;;18.40;99.90;;;;;;4994323;28;20183;-86
2022/07/30 06:02:14;;;;;;;5.28;4.72;;;18.50;99.90;;;;;;4982369;28;20210;-86
2022/07/30 06:05:07;;;;;;;6.23;5.30;;;18.60;99.90;;;;;;5001050;28;20201;-86
2022/07/30 06:07:33;;;;;;;9.52;5.47;;;18.70;99.90;;;;;;4986220;28;20183;-86
2022/07/30 06:10:00;;;;;;;5.28;4.78;;;18.80;99.90;;;;;;4995873;28;20176;-86
2022/07/30 06:12:28;;;;;;;5.38;4.88;;;18.90;99.90;;;;;;4978097;28;20218;-86
2022/07/30 06:14:55;;;;;;;5.95;4.75;;;18.90;99.90;;;;;;4977801;28;20211;-86
2022/07/30 06:17:26;;;;;;;5.43;4.90;;;19.00;99.90;;;;;;4991781;28;20179;-86
2022/07/30 06:20:09;;;;;;;5.70;5.00;;;19.10;99.90;;;;;;4979536;28;20212;-86
2022/07/30 06:22:48;;;;;;;5.68;5.18;;;19.20;99.90;;;;;;4979434;28;20208;-86
2022/07/30 06:25:24;;;;;;;5.30;4.80;;;19.30;99.90;;;;;;4977972;28;20202;-87
2022/07/30 06:27:50;;;;;;;6.72;5.00;;;19.50;99.90;;;;;;4993427;28;20199;-87
2022/07/30 06:30:16;;;;;;;6.03;5.43;;;19.60;99.90;;;;;;4995610;28;20227;-87
2022/07/30 06:32:44;;;;;;;6.25;5.13;;;19.70;99.90;;;;;;4974620;28;20243;-85
2022/07/30 06:35:11;;;;;;;7.97;5.13;;;19.80;99.90;;;;;;4973914;28;20189;-85
2022/07/30 06:37:37;;;;;;;5.32;4.85;;;19.90;99.90;;;;;;4981062;28;20230;-86
2022/07/30 06:40:05;;;;;;;5.35;4.93;;;20.00;99.90;;;;;;4992015;28;20176;-85
2022/07/30 06:42:56;;;;;;;5.53;5.03;;;20.20;99.90;;;;;;4994823;28;20195;-86
2022/07/30 06:45:45;;;;;;;6.05;5.30;;;20.40;99.90;;;;;;4999557;28;20183;-86
2022/07/30 06:48:24;;;;;;;6.40;5.30;;;20.50;99.90;;;;;;5005355;28;20190;-86
2022/07/30 06:50:52;;;;;;;4.82;4.43;;;20.60;99.90;;;;;;4977136;28;20220;-86
2022/07/30 06:53:18;;;;;;;6.30;4.78;;;20.80;99.90;;;;;;4977312;28;20194;-86
2022/07/30 06:56:16;;;;;;;5.70;4.72;;;20.80;99.90;;;;;;4981935;28;20203;-86
2022/07/30 06:58:47;;;;;;;7.25;4.93;;;21.00;99.90;;;;;;4994251;28;20212;-86
2022/07/30 07:01:33;;;;;;;5.68;4.90;;;21.10;99.90;;;;;;4958094;28;20208;-88
2022/07/30 07:04:00;;;;;;;5.38;4.60;;;21.20;99.90;;;;;;4976360;28;20184;-87
2022/07/30 07:06:26;;;;;;;5.38;4.82;;;21.40;99.90;;;;;;4975297;28;20189;-87
2022/07/30 07:08:52;;;;;;;5.40;4.88;;;21.50;99.90;;;;;;5005876;28;20183;-87
2022/07/30 07:11:25;;;;;;;5.82;5.20;;;21.60;99.90;;;;;;4993035;28;20203;-84
2022/07/30 07:13:54;;;;;;;6.07;5.10;;;21.60;99.90;;;;;;4996256;28;20186;-84
2022/07/30 07:16:27;;;;;;;4.82;4.40;;;21.70;99.90;;;;;;5002074;28;20181;-84
2022/07/30 07:18:55;;;;;;;7.40;5.47;;;21.90;99.90;;;;;;4972963;28;20223;-84
2022/07/30 07:21:22;;;;;;;6.72;5.47;;;21.90;99.90;;;;;;4985211;28;20223;-84
2022/07/30 07:23:50;;;;;;;5.82;5.10;;;22.00;99.90;;;;;;5001582;28;20168;-85
2022/07/30 07:26:54;;;;;;;6.13;4.45;;;22.10;99.90;;;;;;4973353;28;20526;-84
2022/07/30 07:29:20;;;;;;;6.03;4.57;;;22.20;99.90;;;;;;4976193;28;20180;-84
2022/07/30 07:31:47;;;;;;;5.45;4.45;;;22.30;99.90;;;;;;4991447;28;20220;-84
2022/07/30 07:34:14;;;;;;;6.18;5.57;;;22.40;99.90;;;;;;4991928;28;20183;-84
2022/07/30 07:36:40;;;;;;;9.52;4.72;;;22.40;99.90;;;;;;4991727;28;20187;-84
2022/07/30 07:39:08;;;;;;;4.80;4.32;;;22.50;99.90;;;;;;5003848;28;20182;-84
2022/07/30 07:41:38;;;;;;;4.18;3.65;;;22.60;99.90;;;;;;4995672;28;20211;-84
2022/07/30 07:44:05;;;;;;;4.45;4.05;;;22.70;99.90;;;;;;5010663;28;20183;-84
2022/07/30 07:46:32;;;;;;;6.30;4.32;;;22.90;99.90;;;;;;4992297;28;20164;-85
2022/07/30 07:49:00;;;;;;;6.10;3.80;;;22.90;99.90;;;;;;4975786;28;20180;-86
2022/07/30 07:51:35;;;;;;;5.72;4.70;;;23.00;99.90;;;;;;4984218;28;20214;-85
2022/07/30 07:54:02;;;;;;;4.43;4.03;;;23.10;99.90;;;;;;5011761;28;20179;-85
2022/07/30 07:56:31;;;;;;;4.25;3.85;;;23.20;99.90;;;;;;5000252;28;20187;-86
2022/07/30 07:58:57;;;;;;;3.83;3.35;;;23.40;99.90;;;;;;4995567;28;20210;-86
2022/07/30 08:01:24;;;;;;;4.15;3.22;;;23.60;99.90;;;;;;4994994;28;20405;-85
2022/07/30 08:04:10;;;;;;;3.97;3.10;;;23.70;99.90;;;;;;4956992;28;20200;-87
2022/07/30 08:07:14;;;;;;;4.95;2.97;;;23.80;99.90;;;;;;4985935;28;20646;-87
2022/07/30 08:09:59;;;;;;;3.33;3.03;;;24.10;99.90;;;;;;4991470;28;20234;-87
2022/07/30 08:12:36;;;;;;;5.10;2.95;;;24.20;99.90;;;;;;4977118;28;20193;-87
2022/07/30 08:15:21;;;;;;;3.70;2.78;;;24.30;99.90;;;;;;4992353;28;20195;-87
2022/07/30 08:18:12;;;;;;;5.10;2.90;;;24.50;99.90;;;;;;4986801;28;20184;-87
2022/07/30 08:20:50;;;;;;;3.22;2.92;;;24.60;99.90;;;;;;4976556;28;20238;-86
2022/07/30 08:23:21;;;;;;;4.60;2.63;;;24.70;99.90;;;;;;4992439;28;20211;-87
2022/07/30 08:25:48;;;;;;;3.72;2.70;;;24.80;99.90;;;;;;5007488;28;20176;-87
2022/07/30 08:28:29;;;;;;;3.58;2.40;;;24.70;99.90;;;;;;4991531;28;20177;-87
2022/07/30 08:30:59;;;;;;;2.70;2.47;;;24.70;99.90;;;;;;4978472;28;20231;-86
2022/07/30 08:33:26;;;;;;;4.90;2.92;;;24.70;99.90;;;;;;4954142;28;20191;-87
2022/07/30 08:35:52;;;;;;;5.75;2.70;;;24.70;99.90;;;;;;4984369;28;20248;-88
2022/07/30 08:38:18;;;;;;;3.22;2.30;;;24.80;99.90;;;;;;4988543;28;20318;-85
2022/07/30 08:40:44;;;;;;;3.88;2.33;;;24.90;99.90;;;;;;4972877;28;20215;-87
2022/07/30 08:43:10;;;;;;;4.53;2.55;;;24.90;99.90;;;;;;4974963;28;20211;-87
2022/07/30 08:45:36;;;;;;;3.50;2.30;;;24.90;99.90;;;;;;4972580;28;20181;-87
2022/07/30 08:48:27;;;;;;;4.15;2.47;;;25.10;99.90;;;;;;4976971;28;20176;-87
2022/07/30 08:50:55;;;;;;;4.68;2.72;;;25.20;99.90;;;;;;4978409;28;20192;-87
2022/07/30 08:53:34;;;;;;;4.47;2.40;;;25.50;99.90;;;;;;5011242;28;20194;-87
2022/07/30 08:56:02;;;;;;;3.45;2.25;;;25.70;99.90;;;;;;5012255;28;20179;-87
2022/07/30 08:58:35;;;;;;;3.97;2.10;;;26.00;99.90;;;;;;4995850;28;20179;-87
2022/07/30 09:01:01;;;;;;;3.42;2.15;;;26.10;99.50;;;;;;4995218;28;20715;-87
2022/07/30 09:03:28;;;;;;;3.83;2.10;;;26.30;99.80;;;;;;4995412;28;20290;-87
2022/07/30 09:05:59;;;;;;;3.00;2.30;;;26.40;99.20;;;;;;4995566;28;20661;-87
2022/07/30 09:08:25;;;;;;;2.40;2.20;;;26.50;99.90;;;;;;4995154;28;20176;-87
2022/07/30 09:10:51;;;;;;;2.97;2.10;;;26.60;98.80;;;;;;4995344;28;20199;-87
2022/07/30 09:13:36;;;;;;;3.00;2.40;;;26.80;98.60;;;;;;4985145;28;20300;-87
2022/07/30 09:16:05;;;;;;;2.63;2.42;;;26.80;98.90;;;;;;4985429;28;20180;-87
2022/07/30 09:18:39;;;;;;;2.80;2.13;;;26.80;98.80;;;;;;4979495;28;20180;-87
2022/07/30 09:21:28;;;;;;;1.90;1.80;;;26.60;97.80;;;;;;4978919;28;20211;-87
2022/07/30 09:24:22;;;;;;;2.80;1.65;;;26.60;97.90;;;;;;4998894;28;20218;-87
2022/07/30 09:27:06;;;;;;;3.85;2.30;;;26.60;97.50;;;;;;4995026;28;20203;-88
2022/07/30 09:29:57;;;;;;;3.17;2.00;;;26.50;96.70;;;;;;4995170;28;20207;-87
2022/07/30 09:32:53;;;;;;;2.15;1.67;;;26.60;96.50;;;;;;5007587;28;20189;-87
2022/07/30 09:35:38;;;;;;;2.92;2.10;;;26.70;96.80;;;;;;5000919;28;20199;-87
2022/07/30 09:38:28;;;;;;;2.60;1.90;;;26.70;95.50;;;;;;4995758;28;20188;-88
2022/07/30 09:41:15;;;;;;;2.00;1.80;;;26.80;96.30;;;;;;4994602;28;20274;-87
2022/07/30 09:43:51;;;;;;;3.58;2.20;;;27.20;96.50;;;;;;4982887;28;20181;-87
2022/07/30 09:46:49;;;;;;;4.32;2.22;;;27.30;96.10;;;;;;5000652;28;20199;-87
2022/07/30 09:49:30;;;;;;;2.05;1.95;;;27.10;94.80;;;;;;4996794;28;20184;-88
2022/07/30 09:51:56;;;;;;;2.97;2.10;;;26.90;96.00;;;;;;4974259;28;20203;-88
2022/07/30 09:54:24;;;;;;;3.17;2.00;;;26.60;96.00;;;;;;5003166;28;20321;-87
2022/07/30 09:57:06;;;;;;;2.35;2.15;;;26.80;96.30;;;;;;4994602;28;20180;-87
2022/07/30 09:59:32;;;;;;;4.03;2.00;;;27.00;95.10;;;;;;4978351;28;20315;-87
2022/07/30 10:01:58;;;;;;;2.85;1.90;;;27.40;95.90;;;;;;4983308;28;20298;-87
2022/07/30 10:05:14;;;;;;;3.20;2.22;;;27.80;94.90;;;;;;4954416;28;20284;-87
2022/07/30 10:07:51;;;;;;;1.95;1.70;;;28.00;93.10;;;;;;4938788;29;20271;-88
2022/07/30 10:10:26;;;;;;;3.80;2.17;;;27.80;92.80;;;;;;4962456;28;20254;-87
2022/07/30 10:12:59;;;;;;;3.50;1.90;;;27.70;94.10;;;;;;4978144;28;20180;-87
2022/07/30 10:15:32;;;;;;;3.85;1.90;;;27.40;94.00;;;;;;4977821;28;20176;-87
2022/07/30 10:17:59;;;;;;;2.13;1.75;;;27.30;95.10;;;;;;4994145;28;20184;-87
2022/07/30 10:20:51;;;;;;;5.20;1.92;;;27.40;94.00;;;;;;5002034;28;20203;-88
2022/07/30 10:23:46;;;;;;;1.92;1.70;;;27.20;93.90;;;;;;4946949;28;20197;-88
2022/07/30 10:26:36;;;;;;;2.22;1.98;;;27.30;94.20;;;;;;4994493;28;20179;-88
2022/07/30 10:29:23;;;;;;;3.50;2.00;;;27.30;93.50;;;;;;4994340;28;20180;-88
2022/07/30 10:31:50;;;;;;;1.77;1.67;;;27.40;94.90;;;;;;4993891;28;20231;-88
2022/07/30 10:34:18;;;;;;;2.85;1.90;;;27.60;93.70;;;;;;4994585;28;20183;-88
2022/07/30 10:36:57;;;;;;;4.60;2.08;;;27.70;93.50;;;;;;4997193;28;20223;-88
2022/07/30 10:39:31;;;;;;;5.32;1.90;;;28.10;93.30;;;;;;4994526;28;20238;-88
2022/07/30 10:42:06;;;;;;;2.88;1.80;;;28.10;92.00;;;;;;4993644;28;20307;-88
2022/07/30 10:45:11;;;;;;;2.63;1.80;;;28.30;92.00;;;;;;4993944;28;20250;-88
2022/07/30 10:47:41;;;;;;;2.80;1.80;;;28.50;92.30;;;;;;4993508;28;20191;-88
2022/07/30 10:50:13;;;;;;;2.03;1.70;;;28.70;91.30;;;;;;4993672;28;20274;-88
2022/07/30 10:52:50;;;;;;;2.33;1.70;;;28.40;90.80;;;;;;4993925;28;20183;-88
2022/07/30 10:55:21;;;;;;;4.13;1.85;;;28.00;91.10;;;;;;4993717;28;20176;-88
2022/07/30 10:58:09;;;;;;;3.15;2.00;;;27.80;91.00;;;;;;4993818;28;20168;-88
2022/07/30 11:00:55;;;;;;;3.17;1.95;;;27.80;91.40;;;;;;4993362;28;20204;-88
2022/07/30 11:03:25;;;;;;;2.72;1.90;;;27.60;92.40;;;;;;5009607;28;20217;-88
2022/07/30 11:06:15;;;;;;;3.05;1.90;;;27.30;91.60;;;;;;4993472;28;20172;-88
2022/07/30 11:08:44;;;;;;;3.28;1.90;;;27.20;92.30;;;;;;4993529;28;20180;-88
2022/07/30 11:11:22;;;;;;;3.17;2.00;;;27.20;93.40;;;;;;4993308;28;20208;-88
2022/07/30 11:13:59;;;;;;;2.28;1.73;;;27.10;92.20;;;;;;4992992;28;20176;-88
2022/07/30 11:16:31;;;;;;;3.15;2.00;;;27.00;93.20;;;;;;4992834;28;20183;-88
2022/07/30 11:19:23;;;;;;;2.22;1.90;;;27.10;93.60;;;;;;4993202;28;20310;-88
2022/07/30 11:22:37;;;;;;;2.67;2.00;;;27.10;93.50;;;;;;4992819;28;20212;-88
2022/07/30 11:25:05;;;;;;;1.90;1.65;;;27.60;93.40;;;;;;4964934;28;20235;-88
2022/07/30 11:27:38;;;;;;;2.85;1.67;;;27.90;91.90;;;;;;4993170;28;20199;-88
2022/07/30 11:30:23;;;;;;;3.63;1.83;;;27.80;92.10;;;;;;4992684;28;20258;-88
2022/07/30 11:32:54;;;;;;;3.00;1.50;;;27.90;91.80;;;;;;4993274;28;20192;-89
2022/07/30 11:35:24;;;;;;;2.78;1.52;;;28.20;91.60;;;;;;4993158;28;20176;-88
2022/07/30 11:37:57;;;;;;;4.03;1.80;;;28.40;90.80;;;;;;4993037;28;20171;-88
2022/07/30 11:40:24;;;;;;;2.63;1.70;;;28.50;91.10;;;;;;4992598;28;20204;-88
2022/07/30 11:43:11;;;;;;;2.22;1.73;;;28.60;90.80;;;;;;4992550;28;20212;-88
2022/07/30 11:45:38;;;;;;;1.98;1.77;;;28.80;90.40;;;;;;4992729;28;20271;-89
2022/07/30 11:48:10;;;;;;;2.47;1.60;;;28.90;89.20;;;;;;4992740;28;20172;-88
2022/07/30 11:50:36;;;;;;;2.10;1.70;;;29.00;90.10;;;;;;4992583;28;20204;-88
2022/07/30 11:53:05;;;;;;;2.22;1.60;;;29.40;89.20;;;;;;4992728;28;20642;-88
2022/07/30 11:55:35;;;;;;;3.33;1.60;;;29.40;88.90;;;;;;4993112;28;20254;-88
2022/07/30 11:58:03;;;;;;;2.70;1.70;;;29.30;88.40;;;;;;4992780;28;20183;-88
2022/07/30 12:00:43;;;;;;;1.70;1.60;;;29.20;87.80;;;;;;4992765;28;20200;-88
2022/07/30 12:03:14;;;;;;;1.95;1.30;;;29.10;85.70;;;;;;5009160;28;20295;-88
2022/07/30 12:05:41;;;;;;;1.40;1.30;;;28.90;87.30;;;;;;4992988;28;20231;-89
2022/07/30 12:08:08;;;;;;;2.33;1.50;;;28.90;88.80;;;;;;4992539;28;20183;-88
2022/07/30 12:10:35;;;;;;;2.65;1.40;;;28.80;90.10;;;;;;5009078;28;20200;-88
2022/07/30 12:13:08;;;;;;;2.85;1.70;;;28.70;87.40;;;;;;4992991;28;20184;-88
2022/07/30 12:15:36;;;;;;;2.65;1.35;;;28.40;88.60;;;;;;4976878;28;20630;-88
2022/07/30 12:18:02;;;;;;;1.55;1.45;;;28.30;86.40;;;;;;4981022;28;20199;-88
2022/07/30 12:20:29;;;;;;;2.15;1.50;;;28.20;89.30;;;;;;5003935;28;20192;-88
2022/07/30 12:22:56;;;;;;;2.10;1.50;;;28.20;88.20;;;;;;5011834;28;20222;-88
2022/07/30 12:25:22;;;;;;;1.60;1.50;;;28.10;90.00;;;;;;5008164;28;20187;-88
2022/07/30 12:27:49;;;;;;;1.83;1.50;;;28.00;90.30;;;;;;4979610;28;20219;-88
2022/07/30 12:30:17;;;;;;;2.58;1.38;;;28.00;90.00;;;;;;5006725;28;20200;-88
2022/07/30 12:32:44;;;;;;;1.45;1.20;;;28.10;90.80;;;;;;4985282;28;20190;-87
2022/07/30 12:35:10;;;;;;;3.65;1.38;;;28.50;90.40;;;;;;4982832;28;20176;-87
2022/07/30 12:37:37;;;;;;;3.28;1.50;;;28.70;89.10;;;;;;4979523;28;20325;-88
2022/07/30 12:40:08;;;;;;;1.70;1.50;;;29.10;90.20;;;;;;4976441;28;20250;-87
2022/07/30 12:42:35;;;;;;;2.15;1.52;;;29.50;87.20;;;;;;4992107;28;20255;-88
2022/07/30 12:45:01;;;;;;;1.83;1.50;;;29.60;85.50;;;;;;4976035;28;20662;-88
2022/07/30 12:47:29;;;;;;;3.13;1.65;;;29.60;87.50;;;;;;4975572;28;20639;-88
2022/07/30 12:49:58;;;;;;;2.08;1.58;;;29.80;88.90;;;;;;4980958;28;20640;-88
2022/07/30 12:52:30;;;;;;;1.48;1.38;;;30.20;88.00;;;;;;5011650;28;20186;-88
2022/07/30 12:55:06;;;;;;;3.65;1.77;;;30.20;86.30;;;;;;5001952;28;20242;-88
2022/07/30 12:58:01;;;;;;;1.73;1.40;;;30.30;86.40;;;;;;5003071;28;20190;-88
2022/07/30 13:00:30;;;;;;;1.60;1.50;;;30.50;84.50;;;;;;4980739;28;20198;-88
2022/07/30 13:02:57;;;;;;;2.25;1.58;;;30.50;84.90;;;;;;4994057;28;20262;-88
2022/07/30 13:05:41;;;;;;;2.88;1.40;;;30.80;86.90;;;;;;5002312;28;20184;-90
2022/07/30 13:08:07;;;;;;;2.17;1.60;;;31.10;84.10;;;;;;4975665;28;20172;-88
2022/07/30 13:10:33;;;;;;;3.55;1.40;;;31.20;83.10;;;;;;4975200;28;20219;-88
2022/07/30 13:13:01;;;;;;;2.80;1.50;;;31.40;84.20;;;;;;4975377;28;20177;-88
2022/07/30 13:15:27;;;;;;;2.00;1.50;;;31.50;82.30;;;;;;4975622;28;20227;-88
2022/07/30 13:17:53;;;;;;;2.33;1.60;;;31.50;83.70;;;;;;4975564;28;20299;-88
2022/07/30 13:20:19;;;;;;;2.95;2.00;;;31.30;81.70;;;;;;4975605;28;20211;-88